Sagamihara, Japan
Current Conditions -  °F | °C
As of 12:58 AM on Saturday 01 Nov 2014 (Local Time) from RJTY Reporting Station
Overcast Overcast  
Wind Chill: 60°   Ceiling: 10000
Heat Index: 60°   Visibility: 8mi
Dew Point: 58°   Wind: 3mph
Humidity: 93%   Direction: 270°W
Pressure: 30.22"   Gusts: NA
Location:  35.58°N, 139.38°E
Report Text: RJTY 311558Z AUTO 27003KT 8SM R18/5500FT OVC100 16/14 A3022 RMK AO2 SLP235 T01560144
Loading
Personal Weather Stations






























Interactive Weather Map
Tropical Storm Tracking
New forecast layout! Learn more

10-Day Weather Forecast

Advertisements
Track Severe Weather on mobile